createdAt,value
2022-07-25T00:00:20.042Z,2.3
2022-07-25T00:05:22.746Z,2.4
2022-07-25T00:10:25.335Z,2.3
2022-07-25T00:15:27.836Z,2.2
2022-07-25T00:20:30.198Z,2.1
2022-07-25T00:25:32.614Z,2.1
2022-07-25T00:30:35.310Z,2.3
2022-07-25T00:35:37.599Z,2.3
2022-07-25T00:40:39.936Z,2.3
2022-07-25T00:45:42.348Z,2
2022-07-25T00:50:44.761Z,2.2
2022-07-25T00:55:47.728Z,2
2022-07-25T01:00:50.375Z,2
2022-07-25T01:05:54.860Z,2.3
2022-07-25T01:10:57.895Z,2.2
2022-07-25T01:16:00.865Z,2.2
2022-07-25T01:21:03.718Z,2.2
2022-07-25T01:26:07.061Z,2.2
2022-07-25T01:31:09.797Z,2.2
2022-07-25T01:36:12.780Z,2.2
2022-07-25T01:41:23.966Z,2.3
2022-07-25T01:46:17.078Z,2.3
2022-07-25T01:51:21.429Z,2.3
2022-07-25T01:56:31.746Z,2.4
2022-07-25T02:01:34.916Z,2.5
2022-07-25T02:06:37.876Z,2.4
2022-07-25T02:11:40.737Z,2.4
2022-07-25T02:16:43.401Z,2.3
2022-07-25T02:21:46.327Z,2.3
2022-07-25T02:26:49.179Z,2.5
2022-07-25T02:31:51.768Z,2.5
2022-07-25T02:36:54.447Z,2.5
2022-07-25T02:41:57.347Z,2.4
2022-07-25T02:47:00.029Z,2.4
2022-07-25T02:52:02.815Z,2.5
2022-07-25T02:57:05.845Z,2.6
2022-07-25T03:02:09.145Z,2.6
2022-07-25T03:07:11.526Z,2.5
2022-07-25T03:12:13.993Z,2.5
2022-07-25T03:17:16.558Z,2.5
2022-07-25T03:22:19.288Z,2.6
2022-07-25T03:27:22.189Z,2.4
2022-07-25T03:32:24.899Z,2.5
2022-07-25T03:37:27.142Z,2.6
2022-07-25T03:42:35.817Z,2.5
2022-07-25T03:47:38.837Z,3.9
2022-07-25T03:52:39.736Z,2.6
2022-07-25T03:57:42.398Z,2.8
2022-07-25T04:02:45.017Z,2.7
2022-07-25T04:07:49.418Z,2.7
2022-07-25T04:12:52.334Z,2.7
2022-07-25T04:17:56.375Z,2.5
2022-07-25T04:22:58.819Z,2.5
2022-07-25T04:28:01.329Z,2.5
2022-07-25T04:33:03.769Z,2.6
2022-07-25T04:38:12.831Z,2.5
2022-07-25T04:43:15.390Z,2.7
2022-07-25T04:48:17.847Z,2.2
2022-07-25T04:53:20.141Z,2.2
2022-07-25T04:58:22.502Z,2.2
2022-07-25T05:03:25.080Z,2.2
2022-07-25T05:08:27.385Z,2.3
2022-07-25T05:13:29.904Z,1.8
2022-07-25T05:18:32.599Z,2.1
2022-07-25T05:23:35.195Z,2.2
2022-07-25T05:28:37.779Z,2
2022-07-25T05:33:40.701Z,2.3
2022-07-25T05:38:43.099Z,2.4
2022-07-25T05:43:45.830Z,2.3
2022-07-25T05:48:48.513Z,2.3
2022-07-25T05:53:51.141Z,2.6
2022-07-25T05:58:53.407Z,2.2
2022-07-25T06:03:55.750Z,2.5
2022-07-25T06:08:58.714Z,2.3
2022-07-25T06:13:58.353Z,2.4
2022-07-25T06:19:01.291Z,2.4
2022-07-25T06:24:04.313Z,2.4
2022-07-25T06:29:08.271Z,2.3
2022-07-25T06:34:11.484Z,2.2
2022-07-25T06:39:14.148Z,2.1
2022-07-25T06:44:17.157Z,1.9
2022-07-25T06:49:19.644Z,2
2022-07-25T06:54:22.174Z,1.9
2022-07-25T06:59:24.798Z,1.9
2022-07-25T07:04:27.429Z,1.8
2022-07-25T07:09:30.004Z,2.1
2022-07-25T07:14:32.802Z,1.8
2022-07-25T07:19:35.828Z,2
2022-07-25T07:24:45.274Z,1.9
2022-07-25T07:29:41.071Z,2
2022-07-25T07:34:43.594Z,2
2022-07-25T07:39:45.927Z,1.9
2022-07-25T07:44:48.616Z,2.1
2022-07-25T07:49:51.498Z,2
2022-07-25T07:54:59.483Z,1.9
2022-07-25T08:00:02.392Z,1.8
2022-07-25T08:05:05.129Z,2
2022-07-25T08:10:07.404Z,2.2
2022-07-25T08:15:08.117Z,1.9
2022-07-25T08:20:38.441Z,1.9
2022-07-25T08:25:11.384Z,2.1
2022-07-25T08:30:14.226Z,2.1
2022-07-25T08:35:16.843Z,1.9
2022-07-25T08:40:19.306Z,2.1
2022-07-25T08:45:22.239Z,2.1
2022-07-25T08:50:24.843Z,2.1
2022-07-25T08:55:27.405Z,2.2
2022-07-25T09:00:29.859Z,2
2022-07-25T09:05:32.500Z,2.3
2022-07-25T09:10:38.607Z,2.2
2022-07-25T09:15:41.746Z,2.3
2022-07-25T09:20:44.407Z,2.4
2022-07-25T09:25:46.732Z,2.6
2022-07-25T09:30:49.056Z,2.6
2022-07-25T09:35:51.735Z,3
2022-07-25T09:40:54.386Z,2.8
2022-07-25T09:45:56.762Z,2.7
2022-07-25T09:50:59.448Z,2.6
2022-07-25T09:56:02.656Z,2.7
2022-07-25T10:01:05.235Z,2.7
2022-07-25T10:06:08.252Z,2.8
2022-07-25T10:11:10.632Z,2.7
2022-07-25T10:16:13.130Z,2.6
2022-07-25T10:21:28.139Z,2.6
2022-07-25T10:26:21.070Z,2.8
2022-07-25T10:31:23.705Z,2.4
2022-07-25T10:36:26.770Z,2.8
2022-07-25T10:41:29.211Z,2.5
2022-07-25T10:46:32.146Z,2.6
2022-07-25T10:51:41.998Z,2.7
2022-07-25T10:56:44.774Z,2.8
2022-07-25T11:01:47.172Z,2.7
2022-07-25T11:06:50.267Z,2.8
2022-07-25T11:11:52.990Z,2.9
2022-07-25T11:16:56.052Z,2.8
2022-07-25T11:21:59.372Z,2.9
2022-07-25T11:27:03.461Z,2.8
2022-07-25T11:32:04.643Z,2.4
2022-07-25T11:37:07.445Z,3
2022-07-25T11:42:10.006Z,2.7
2022-07-25T11:47:12.533Z,2.8
2022-07-25T11:52:15.258Z,2.8
2022-07-25T11:57:18.452Z,2.7
2022-07-25T12:02:23.503Z,2.7
2022-07-25T12:07:27.491Z,2.6
2022-07-25T12:12:30.396Z,2.6
2022-07-25T12:17:33.086Z,2.8
2022-07-25T12:22:35.612Z,2.7
2022-07-25T12:27:37.914Z,2.8
2022-07-25T12:32:40.898Z,3.1
2022-07-25T12:37:43.556Z,2.7
2022-07-25T12:42:46.390Z,2.7
2022-07-25T12:47:49.480Z,2.5
2022-07-25T12:52:51.995Z,2.8
2022-07-25T12:57:54.272Z,3
2022-07-25T13:02:57.046Z,2.7
2022-07-25T13:07:59.855Z,3.1
2022-07-25T13:13:02.268Z,2.7
2022-07-25T13:18:04.759Z,2.6
2022-07-25T13:23:07.037Z,2.6
2022-07-25T13:28:12.149Z,2.7
2022-07-25T13:33:16.849Z,3
2022-07-25T13:38:19.456Z,2.8
2022-07-25T13:43:22.354Z,2.8
2022-07-25T13:48:32.992Z,2.6
2022-07-25T13:53:30.921Z,2.4
2022-07-25T13:58:33.673Z,2.6
2022-07-25T14:03:36.739Z,2.7
2022-07-25T14:08:41.802Z,2.7
2022-07-25T14:13:44.328Z,2.5
2022-07-25T14:18:47.224Z,2.6
2022-07-25T14:23:49.788Z,2.6
2022-07-25T14:28:52.046Z,2.5
2022-07-25T14:33:54.497Z,2.5
2022-07-25T14:38:57.083Z,2.9
2022-07-25T14:44:00.407Z,2.6
2022-07-25T14:49:03.138Z,2.5
2022-07-25T14:54:06.849Z,2.6
2022-07-25T14:59:10.081Z,2.5
2022-07-25T15:04:13.200Z,2.4
2022-07-25T15:09:15.869Z,2.6
2022-07-25T15:14:18.208Z,2.6
2022-07-25T15:19:20.806Z,2.6
2022-07-25T15:24:29.656Z,2.6
2022-07-25T15:29:28.556Z,2.6
2022-07-25T15:34:31.047Z,2.7
2022-07-25T15:39:33.538Z,2.8
2022-07-25T15:44:36.072Z,2.6
2022-07-25T15:49:38.795Z,2.4
2022-07-25T15:54:41.292Z,2.4
2022-07-25T15:59:43.542Z,2.7
2022-07-25T16:04:46.171Z,2.8
2022-07-25T16:09:49.077Z,2.7
2022-07-25T16:14:51.617Z,2.6
2022-07-25T16:19:54.090Z,2.7
2022-07-25T16:24:56.536Z,2.6
2022-07-25T16:29:58.849Z,2.4
2022-07-25T16:35:01.603Z,2.4
2022-07-25T16:40:04.882Z,3
2022-07-25T16:45:07.310Z,2.6
2022-07-25T16:50:09.844Z,2.7
2022-07-25T16:55:12.342Z,2.7
2022-07-25T17:00:14.640Z,2.4
2022-07-25T17:05:17.330Z,2.7
2022-07-25T17:10:21.142Z,2.6
2022-07-25T17:15:23.837Z,2.6
2022-07-25T17:20:26.315Z,2.6
2022-07-25T17:25:28.764Z,2.6
2022-07-25T17:30:31.522Z,2.6
2022-07-25T17:35:34.289Z,2.5
2022-07-25T17:40:36.849Z,3.5
2022-07-25T17:45:39.281Z,3.7
2022-07-25T17:50:41.900Z,4.1
2022-07-25T17:55:45.644Z,5.2
2022-07-25T18:00:48.109Z,4.8
2022-07-25T18:05:50.554Z,4.9
2022-07-25T18:10:53.161Z,5
2022-07-25T18:15:55.533Z,5.3
2022-07-25T18:20:58.453Z,4.9
2022-07-25T18:26:01.998Z,5.5
2022-07-25T18:31:04.649Z,4.5
2022-07-25T18:36:08.878Z,3.7
2022-07-25T18:41:30.515Z,3.5
2022-07-25T18:46:15.137Z,3.4
2022-07-25T18:51:18.911Z,3.4
2022-07-25T18:56:21.954Z,3.7
2022-07-25T19:01:24.580Z,3.8
2022-07-25T19:06:30.196Z,3.8
2022-07-25T19:11:33.605Z,3.7
2022-07-25T19:16:43.471Z,3.4
2022-07-25T19:21:46.425Z,3.3
2022-07-25T19:26:49.768Z,3.6
2022-07-25T19:31:52.334Z,3.5
2022-07-25T19:36:55.244Z,3.8
2022-07-25T19:41:58.079Z,7.9
2022-07-25T19:47:02.229Z,3.7
2022-07-25T19:52:02.059Z,4.9
2022-07-25T19:57:04.393Z,6
2022-07-25T20:02:05.141Z,4.5
2022-07-25T20:07:09.540Z,4.2
2022-07-25T20:12:12.486Z,4.2
2022-07-25T20:17:14.957Z,3.9
2022-07-25T20:22:17.740Z,3.7
2022-07-25T20:27:20.911Z,3.8
2022-07-25T20:32:23.399Z,3.7
2022-07-25T20:37:26.271Z,4
2022-07-25T20:42:28.750Z,3.8
2022-07-25T20:47:32.157Z,3.9
2022-07-25T20:52:34.545Z,4
2022-07-25T20:57:36.930Z,3.9
2022-07-25T21:02:39.524Z,4
2022-07-25T21:07:42.524Z,3.7
2022-07-25T21:12:46.819Z,3.6
2022-07-25T21:17:49.282Z,3.8
2022-07-25T21:22:52.175Z,3.6
2022-07-25T21:27:54.651Z,3.7
2022-07-25T21:32:56.917Z,3.5
2022-07-25T21:37:59.648Z,3.5
2022-07-25T21:43:02.136Z,3.5
2022-07-25T21:48:04.456Z,3.3
2022-07-25T21:53:07.428Z,3.2
2022-07-25T21:58:10.163Z,3
2022-07-25T22:03:12.455Z,3.3
2022-07-25T22:08:14.688Z,2.9
2022-07-25T22:13:17.220Z,3.3
2022-07-25T22:18:19.807Z,2.9
2022-07-25T22:23:26.113Z,2.8
2022-07-25T22:28:31.094Z,3
2022-07-25T22:33:33.410Z,3.2
2022-07-25T22:38:36.090Z,2.9
2022-07-25T22:43:59.772Z,2.8
2022-07-25T22:48:42.418Z,3
2022-07-25T22:53:45.197Z,2.8
2022-07-25T22:58:50.013Z,2.9
2022-07-25T23:03:52.753Z,3
2022-07-25T23:08:55.557Z,3.1
2022-07-25T23:13:58.011Z,3
2022-07-25T23:19:00.502Z,3.1
2022-07-25T23:24:03.067Z,3
2022-07-25T23:29:06.467Z,3
2022-07-25T23:34:10.426Z,2.9
2022-07-25T23:39:16.420Z,3.1
2022-07-25T23:44:19.196Z,14.1
2022-07-25T23:49:26.973Z,172.6
2022-07-25T23:54:30.276Z,98.7
2022-07-25T23:59:31.057Z,95.8
